createdAt,value
2019-04-09T00:02:29.711Z,12.90
2019-04-09T00:05:11.094Z,12.80
2019-04-09T00:08:01.128Z,12.60
2019-04-09T00:10:34.850Z,12.70
2019-04-09T00:13:16.933Z,12.80
2019-04-09T00:15:58.517Z,12.80
2019-04-09T00:18:39.969Z,12.80
2019-04-09T00:21:21.568Z,12.80
2019-04-09T00:24:03.242Z,12.90
2019-04-09T00:26:50.307Z,12.90
2019-04-09T00:29:16.453Z,12.80
2019-04-09T00:32:05.328Z,12.80
2019-04-09T00:37:53.989Z,12.70
2019-04-09T00:46:53.690Z,12.60
2019-04-09T00:55:51.508Z,12.70
2019-04-09T00:58:21.177Z,12.60
2019-04-09T01:04:05.511Z,12.70
2019-04-09T01:06:47.661Z,12.70
2019-04-09T01:09:29.357Z,12.70
2019-04-09T01:12:12.174Z,12.70
2019-04-09T01:14:53.913Z,12.60
2019-04-09T01:17:35.929Z,12.60
2019-04-09T01:20:17.670Z,12.60
2019-04-09T01:22:59.605Z,12.60
2019-04-09T01:25:59.819Z,12.70
2019-04-09T01:32:08.875Z,12.70
2019-04-09T01:38:28.703Z,12.70
2019-04-09T01:41:19.282Z,12.70
2019-04-09T01:47:36.490Z,12.60
2019-04-09T01:50:45.794Z,12.70
2019-04-09T01:57:00.057Z,12.60
2019-04-09T02:00:07.565Z,12.60
2019-04-09T02:03:15.016Z,12.50
2019-04-09T02:06:22.995Z,12.60
2019-04-09T02:09:31.811Z,12.60
2019-04-09T02:12:39.313Z,12.60
2019-04-09T02:15:47.760Z,12.60
2019-04-09T02:18:45.320Z,12.60
2019-04-09T02:21:53.499Z,12.60
2019-04-09T02:25:00.983Z,12.60
2019-04-09T02:28:08.972Z,12.60
2019-04-09T02:31:17.744Z,12.70
2019-04-09T02:37:32.529Z,12.70
2019-04-09T02:40:36.140Z,12.70
2019-04-09T02:43:42.985Z,12.70
2019-04-09T02:46:40.191Z,12.70
2019-04-09T02:49:47.814Z,12.70
2019-04-09T02:52:56.218Z,12.70
2019-04-09T02:59:23.747Z,12.70
2019-04-09T03:02:24.026Z,12.70
2019-04-09T03:05:24.542Z,12.70
2019-04-09T03:08:21.246Z,12.60
2019-04-09T03:11:31.776Z,12.70
2019-04-09T03:14:40.446Z,12.60
2019-04-09T03:17:49.377Z,12.50
2019-04-09T03:20:57.118Z,12.50
2019-04-09T03:24:05.641Z,12.50
2019-04-09T03:27:14.135Z,12.50
2019-04-09T03:30:22.409Z,12.50
2019-04-09T03:33:31.859Z,12.50
2019-04-09T03:36:40.052Z,12.50
2019-04-09T03:39:48.641Z,12.50
2019-04-09T03:42:57.414Z,12.50
2019-04-09T03:46:05.814Z,12.50
2019-04-09T03:49:13.320Z,12.50
2019-04-09T03:52:20.814Z,12.50
2019-04-09T03:55:18.208Z,12.50
2019-04-09T03:58:27.116Z,12.60
2019-04-09T04:01:34.907Z,12.60
2019-04-09T04:04:39.508Z,12.60
2019-04-09T04:07:35.624Z,12.60
2019-04-09T04:10:43.090Z,12.60
2019-04-09T04:13:45.077Z,12.60
2019-04-09T04:16:46.693Z,12.60
2019-04-09T04:19:53.102Z,12.60
2019-04-09T04:22:52.626Z,12.60
2019-04-09T04:28:52.298Z,12.50
2019-04-09T04:31:54.970Z,12.50
2019-04-09T04:38:10.102Z,12.50
2019-04-09T04:41:14.130Z,12.50
2019-04-09T04:44:15.281Z,12.50
2019-04-09T04:47:15.282Z,12.50
2019-04-09T04:50:15.634Z,12.50
2019-04-09T04:53:15.187Z,12.50
2019-04-09T04:56:21.532Z,12.50
2019-04-09T04:59:22.675Z,12.60
2019-04-09T05:02:23.246Z,12.50
2019-04-09T05:05:12.285Z,12.60
2019-04-09T05:08:13.165Z,12.60
2019-04-09T05:11:14.563Z,12.60
2019-04-09T05:14:03.618Z,12.60
2019-04-09T05:17:12.063Z,12.60
2019-04-09T05:20:20.287Z,12.60
2019-04-09T05:23:28.111Z,12.60
2019-04-09T05:26:35.905Z,12.60
2019-04-09T05:29:44.345Z,12.60
2019-04-09T05:32:55.447Z,12.60
2019-04-09T05:36:01.755Z,12.60
2019-04-09T05:39:09.319Z,12.60
2019-04-09T05:42:17.183Z,12.60
2019-04-09T05:45:25.606Z,12.60
2019-04-09T05:48:25.505Z,12.60
2019-04-09T05:51:35.214Z,12.60
2019-04-09T05:58:09.070Z,12.50
2019-04-09T06:01:16.960Z,12.60
2019-04-09T06:04:25.566Z,12.60
2019-04-09T06:07:33.639Z,12.70
2019-04-09T06:13:40.253Z,12.70
2019-04-09T06:16:22.344Z,12.70
2019-04-09T06:19:03.780Z,12.80
2019-04-09T06:21:45.425Z,12.80
2019-04-09T06:24:27.897Z,12.70
2019-04-09T06:26:57.819Z,12.70
2019-04-09T06:29:27.956Z,12.70
2019-04-09T06:32:00.943Z,12.70
2019-04-09T06:34:40.845Z,12.70
2019-04-09T06:37:35.685Z,12.80
2019-04-09T06:40:26.295Z,12.80
2019-04-09T06:43:13.522Z,12.80
2019-04-09T06:45:57.653Z,12.80
2019-04-09T06:48:46.519Z,12.90
2019-04-09T06:51:47.005Z,12.90
2019-04-09T06:54:28.685Z,13.00
2019-04-09T06:57:17.267Z,12.90
2019-04-09T06:59:59.869Z,12.90
2019-04-09T07:02:49.022Z,12.90
2019-04-09T07:05:38.679Z,12.90
2019-04-09T07:08:27.434Z,13.00
2019-04-09T07:11:19.869Z,13.00
2019-04-09T07:13:56.537Z,13.10
2019-04-09T07:16:53.965Z,13.10
2019-04-09T07:19:36.830Z,13.20
2019-04-09T07:22:30.225Z,13.20
2019-04-09T07:25:19.485Z,13.20
2019-04-09T07:27:55.277Z,13.20
2019-04-09T07:30:47.671Z,13.30
2019-04-09T07:33:37.269Z,13.40
2019-04-09T07:36:21.866Z,13.50
2019-04-09T07:39:14.381Z,13.60
2019-04-09T07:42:02.028Z,13.60
2019-04-09T07:44:49.796Z,13.60
2019-04-09T07:47:36.818Z,13.60
2019-04-09T07:50:35.706Z,13.70
2019-04-09T07:53:36.508Z,13.80
2019-04-09T07:56:29.944Z,13.80
2019-04-09T07:59:09.808Z,13.90
2019-04-09T08:01:51.697Z,13.80
2019-04-09T08:04:36.268Z,13.90
2019-04-09T08:07:25.052Z,13.90
2019-04-09T08:10:06.082Z,13.90
2019-04-09T08:13:05.597Z,13.90
2019-04-09T08:16:14.839Z,13.90
2019-04-09T08:25:02.172Z,14.00
2019-04-09T08:28:11.240Z,13.90
2019-04-09T08:31:01.458Z,13.90
2019-04-09T08:33:51.253Z,14.00
2019-04-09T08:36:59.385Z,14.10
2019-04-09T08:40:10.208Z,14.20
2019-04-09T08:43:16.678Z,14.20
2019-04-09T08:46:09.137Z,14.30
2019-04-09T08:49:07.356Z,14.30
2019-04-09T08:52:15.555Z,14.30
2019-04-09T09:02:01.706Z,14.30
2019-04-09T09:05:06.736Z,14.40
2019-04-09T09:08:08.490Z,14.40
2019-04-09T09:11:04.972Z,14.40
2019-04-09T09:14:12.620Z,14.40
2019-04-09T09:17:13.150Z,14.40
2019-04-09T09:20:20.740Z,14.50
2019-04-09T09:23:28.305Z,14.50
2019-04-09T09:26:37.512Z,14.50
2019-04-09T09:29:45.060Z,14.60
2019-04-09T09:32:53.436Z,14.60
2019-04-09T09:36:03.682Z,14.50
2019-04-09T09:38:46.167Z,14.50
2019-04-09T09:41:33.806Z,14.50
2019-04-09T09:44:42.720Z,14.50
2019-04-09T09:48:02.859Z,14.50
2019-04-09T09:57:36.220Z,14.50
2019-04-09T10:01:11.353Z,14.50
2019-04-09T10:04:13.426Z,14.60
2019-04-09T10:07:36.714Z,14.60
2019-04-09T10:10:52.141Z,14.60
2019-04-09T10:13:48.889Z,14.70
2019-04-09T10:16:39.750Z,14.80
2019-04-09T10:19:40.973Z,14.80
2019-04-09T10:22:33.845Z,14.80
2019-04-09T10:25:42.588Z,14.80
2019-04-09T10:28:28.273Z,14.80
2019-04-09T10:31:36.566Z,14.80
2019-04-09T10:34:55.489Z,14.80
2019-04-09T10:37:53.307Z,14.80
2019-04-09T10:40:43.015Z,14.70
2019-04-09T10:43:36.718Z,14.70
2019-04-09T10:47:12.270Z,14.80
2019-04-09T10:49:55.829Z,14.90
2019-04-09T10:53:17.798Z,15.00
2019-04-09T10:58:38.419Z,15.30
2019-04-09T11:01:35.119Z,15.30
2019-04-09T11:04:44.577Z,15.20
2019-04-09T11:11:17.883Z,15.30
2019-04-09T11:14:08.768Z,15.40
2019-04-09T11:20:15.453Z,15.40
2019-04-09T11:23:24.826Z,15.40
2019-04-09T11:26:14.167Z,15.40
2019-04-09T11:29:00.488Z,15.30
2019-04-09T11:31:53.501Z,15.40
2019-04-09T11:34:39.624Z,15.50
2019-04-09T11:37:47.080Z,15.40
2019-04-09T11:40:55.674Z,15.50
2019-04-09T11:44:05.209Z,15.50
2019-04-09T11:47:14.926Z,15.60
2019-04-09T11:50:23.678Z,15.60
2019-04-09T11:53:32.901Z,15.60
2019-04-09T12:03:36.824Z,15.70
2019-04-09T12:06:45.126Z,15.70
2019-04-09T12:09:54.041Z,15.70
2019-04-09T12:13:02.295Z,15.70
2019-04-09T12:16:10.037Z,15.80
2019-04-09T12:19:17.590Z,15.90
2019-04-09T12:22:25.857Z,15.90
2019-04-09T12:25:34.464Z,15.90
2019-04-09T12:28:41.953Z,15.90
2019-04-09T12:35:09.101Z,15.80
2019-04-09T12:38:16.539Z,15.70
2019-04-09T12:41:24.339Z,15.70
2019-04-09T12:47:50.403Z,15.50
2019-04-09T12:50:58.460Z,15.50
2019-04-09T13:00:34.852Z,15.40
2019-04-09T13:03:55.506Z,15.40
2019-04-09T13:08:13.728Z,15.50
2019-04-09T13:10:20.012Z,15.50
2019-04-09T13:13:08.701Z,15.50
2019-04-09T13:15:57.484Z,15.50
2019-04-09T13:18:47.238Z,15.50
2019-04-09T13:21:37.213Z,15.50
2019-04-09T13:24:45.920Z,15.50
2019-04-09T13:27:35.250Z,15.60
2019-04-09T13:30:44.409Z,15.70
2019-04-09T13:33:53.133Z,15.70
2019-04-09T13:36:42.047Z,15.70
2019-04-09T13:39:39.775Z,15.70
2019-04-09T13:42:28.792Z,15.70
2019-04-09T13:45:17.928Z,15.60
2019-04-09T13:48:26.032Z,15.60
2019-04-09T13:51:28.771Z,15.60
2019-04-09T13:53:46.399Z,15.70
2019-04-09T13:56:57.006Z,15.70
2019-04-09T13:59:26.749Z,15.70
2019-04-09T14:02:01.097Z,15.70
2019-04-09T14:04:51.497Z,15.70
2019-04-09T14:07:21.632Z,15.80
2019-04-09T14:09:52.311Z,15.80
2019-04-09T14:15:50.857Z,15.80
2019-04-09T14:18:20.758Z,15.70
2019-04-09T14:20:51.760Z,15.80
2019-04-09T14:23:21.697Z,15.80
2019-04-09T14:26:16.337Z,15.80
2019-04-09T14:28:46.160Z,15.80
2019-04-09T14:31:16.173Z,15.80
2019-04-09T14:33:45.810Z,15.80
2019-04-09T14:36:16.429Z,15.80
2019-04-09T14:38:46.786Z,15.80
2019-04-09T14:41:35.382Z,15.80
2019-04-09T14:44:05.799Z,15.80
2019-04-09T14:46:35.520Z,15.90
2019-04-09T14:49:25.031Z,15.90
2019-04-09T14:51:56.929Z,15.90
2019-04-09T14:54:45.615Z,15.90
2019-04-09T14:57:34.605Z,16.00
2019-04-09T15:06:14.335Z,16.10
2019-04-09T15:11:53.612Z,16.00
2019-04-09T15:14:24.122Z,16.10
2019-04-09T15:16:53.873Z,16.20
2019-04-09T15:19:23.899Z,16.20
2019-04-09T15:22:12.576Z,16.20
2019-04-09T15:24:55.202Z,16.20
2019-04-09T15:27:25.887Z,16.20
2019-04-09T15:30:15.647Z,16.10
2019-04-09T15:32:46.166Z,16.20
2019-04-09T15:35:34.950Z,16.20
2019-04-09T15:38:05.037Z,16.10
2019-04-09T15:40:53.774Z,16.10
2019-04-09T15:43:25.417Z,16.10
2019-04-09T15:45:55.869Z,16.10
2019-04-09T15:48:44.835Z,16.10
2019-04-09T15:51:33.461Z,16.00
2019-04-09T15:57:04.212Z,15.90
2019-04-09T15:59:46.828Z,15.90
2019-04-09T16:02:24.871Z,15.80
2019-04-09T16:04:55.095Z,15.70
2019-04-09T16:07:26.252Z,15.60
2019-04-09T16:09:56.608Z,15.50
2019-04-09T16:12:26.981Z,15.50
2019-04-09T16:15:16.599Z,15.40
2019-04-09T16:18:09.197Z,15.40
2019-04-09T16:20:41.621Z,15.30
2019-04-09T16:23:11.274Z,15.20
2019-04-09T16:25:42.597Z,15.10
2019-04-09T16:28:13.014Z,15.10
2019-04-09T16:30:43.976Z,15.10
2019-04-09T16:33:17.551Z,15.00
2019-04-09T16:36:05.604Z,15.10
2019-04-09T16:38:36.118Z,15.10
2019-04-09T16:41:05.795Z,15.10
2019-04-09T16:43:55.485Z,15.10
2019-04-09T16:46:25.231Z,15.00
2019-04-09T16:49:16.587Z,15.00
2019-04-09T16:51:47.159Z,15.00
2019-04-09T16:54:18.089Z,15.00
2019-04-09T16:56:49.629Z,15.00
2019-04-09T17:02:46.920Z,14.90
2019-04-09T17:05:35.693Z,14.90
2019-04-09T17:08:05.587Z,14.90
2019-04-09T17:10:35.927Z,14.80
2019-04-09T17:13:06.852Z,14.80
2019-04-09T17:15:37.792Z,14.70
2019-04-09T17:18:08.229Z,14.70
2019-04-09T17:20:42.098Z,14.70
2019-04-09T17:23:12.867Z,14.60
2019-04-09T17:25:42.720Z,14.60
2019-04-09T17:28:23.737Z,14.60
2019-04-09T17:30:54.543Z,14.50
2019-04-09T17:33:25.591Z,14.50
2019-04-09T17:35:55.676Z,14.50
2019-04-09T17:38:28.061Z,14.50
2019-04-09T17:40:58.561Z,14.40
2019-04-09T17:43:28.991Z,14.40
2019-04-09T17:49:08.941Z,14.30
2019-04-09T17:51:40.207Z,14.30
2019-04-09T17:54:11.201Z,14.20
2019-04-09T17:56:41.023Z,14.20
2019-04-09T17:59:29.714Z,14.20
2019-04-09T18:02:20.327Z,14.10
2019-04-09T18:05:09.082Z,14.10
2019-04-09T18:07:42.623Z,14.10
2019-04-09T18:10:33.125Z,14.10
2019-04-09T18:13:03.353Z,14.10
2019-04-09T18:15:54.052Z,14.10
2019-04-09T18:18:43.106Z,14.10
2019-04-09T18:21:12.847Z,14.10
2019-04-09T18:23:46.540Z,14.10
2019-04-09T18:26:16.748Z,14.10
2019-04-09T18:28:46.928Z,14.10
2019-04-09T18:31:34.162Z,14.10
2019-04-09T18:34:00.651Z,14.10
2019-04-09T18:36:50.608Z,14.10
2019-04-09T18:42:30.926Z,14.10
2019-04-09T18:45:20.475Z,14.00
2019-04-09T18:48:09.170Z,14.00
2019-04-09T18:50:39.334Z,14.00
2019-04-09T18:53:09.394Z,14.00
2019-04-09T18:55:40.296Z,13.90
2019-04-09T18:58:10.350Z,13.90
2019-04-09T19:00:40.541Z,13.90
2019-04-09T19:03:11.622Z,13.70
2019-04-09T19:05:41.529Z,13.80
2019-04-09T19:08:12.318Z,13.80
2019-04-09T19:10:43.228Z,13.80
2019-04-09T19:13:14.738Z,13.80
2019-04-09T19:15:45.882Z,13.70
2019-04-09T19:18:16.326Z,13.80
2019-04-09T19:20:46.350Z,13.70
2019-04-09T19:23:16.074Z,13.70
2019-04-09T19:25:48.321Z,13.60
2019-04-09T19:28:19.209Z,13.70
2019-04-09T19:30:49.083Z,13.70
2019-04-09T19:33:31.922Z,13.70
2019-04-09T19:36:13.219Z,13.70
2019-04-09T19:38:55.509Z,13.60
2019-04-09T19:41:36.976Z,13.70
2019-04-09T19:44:06.704Z,13.60
2019-04-09T19:46:36.509Z,13.50
2019-04-09T19:49:25.250Z,13.50
2019-04-09T19:51:55.718Z,13.50
2019-04-09T19:54:45.392Z,13.50
2019-04-09T19:57:15.638Z,13.50
2019-04-09T20:00:19.336Z,13.50
2019-04-09T20:02:55.513Z,13.40
2019-04-09T20:05:44.473Z,13.40
2019-04-09T20:11:25.522Z,13.40
2019-04-09T20:14:40.912Z,13.30
2019-04-09T20:17:12.417Z,13.40
2019-04-09T20:20:01.920Z,13.30
2019-04-09T20:22:51.807Z,13.30
2019-04-09T20:28:50.970Z,13.20
2019-04-09T20:31:22.826Z,13.30
2019-04-09T20:34:11.989Z,13.20
2019-04-09T20:37:01.151Z,13.20
2019-04-09T20:39:44.430Z,13.10
2019-04-09T20:42:17.162Z,13.10
2019-04-09T20:44:46.891Z,13.10
2019-04-09T20:47:36.175Z,13.10
2019-04-09T20:50:25.842Z,13.10
2019-04-09T20:53:15.802Z,13.00
2019-04-09T21:02:33.943Z,12.90
2019-04-09T21:05:52.975Z,12.80
2019-04-09T21:08:34.297Z,12.80
2019-04-09T21:11:23.070Z,12.80
2019-04-09T21:14:28.629Z,12.90
2019-04-09T21:17:04.921Z,12.90
2019-04-09T21:19:53.848Z,12.90
2019-04-09T21:22:26.273Z,12.80
2019-04-09T21:25:16.217Z,12.80
2019-04-09T21:28:05.927Z,12.80
2019-04-09T21:34:03.955Z,12.80
2019-04-09T21:36:52.941Z,12.70
2019-04-09T21:39:23.058Z,12.70
2019-04-09T21:42:11.928Z,12.70
2019-04-09T21:44:42.866Z,12.70
2019-04-09T21:47:12.514Z,12.70
2019-04-09T21:49:42.349Z,12.70
2019-04-09T21:52:12.593Z,12.70
2019-04-09T21:54:42.250Z,12.70
2019-04-09T21:57:31.539Z,12.60
2019-04-09T22:00:02.454Z,12.60
2019-04-09T22:02:51.973Z,12.60
2019-04-09T22:05:42.687Z,12.60
2019-04-09T22:08:12.671Z,12.50
2019-04-09T22:14:10.820Z,12.50
2019-04-09T22:16:59.394Z,12.50
2019-04-09T22:19:48.555Z,12.50
2019-04-09T22:25:26.985Z,12.40
2019-04-09T22:28:16.633Z,12.40
2019-04-09T22:31:26.072Z,12.40
2019-04-09T22:33:55.749Z,12.30
2019-04-09T22:36:45.100Z,12.30
2019-04-09T22:39:16.043Z,12.20
2019-04-09T22:42:05.950Z,12.10
2019-04-09T22:44:37.806Z,12.10
2019-04-09T22:47:08.859Z,12.10
2019-04-09T22:49:58.154Z,12.10
2019-04-09T22:52:47.904Z,12.00
2019-04-09T22:55:38.364Z,12.00
2019-04-09T22:58:28.723Z,12.00
2019-04-09T23:01:18.122Z,11.90
2019-04-09T23:04:26.345Z,11.80
2019-04-09T23:07:34.542Z,11.80
2019-04-09T23:10:23.874Z,11.80
2019-04-09T23:12:56.784Z,11.80
2019-04-09T23:15:47.667Z,11.70
2019-04-09T23:18:19.088Z,11.70
2019-04-09T23:21:07.828Z,11.70
2019-04-09T23:23:39.397Z,11.70
2019-04-09T23:26:10.968Z,11.70
2019-04-09T23:28:59.696Z,11.60
2019-04-09T23:31:48.326Z,11.60
2019-04-09T23:34:18.043Z,11.60
2019-04-09T23:37:09.125Z,11.60
2019-04-09T23:39:57.115Z,11.60
2019-04-09T23:42:45.718Z,11.60
2019-04-09T23:45:34.962Z,11.60
2019-04-09T23:48:16.165Z,11.60
2019-04-09T23:50:57.189Z,11.60
2019-04-09T23:53:29.364Z,11.60
2019-04-09T23:56:19.759Z,11.50
2019-04-09T23:59:08.886Z,11.50
